Time;durP1;ratioP1;P1;durP2;ratioP2;P2;SDS_P1;SDS_P2;PMS_P1;PMS_P2;Temp;Humidity;BMP_temperature;BMP_pressure;BME280_temperature;BME280_humidity;BME280_pressure;Samples;Min_cycle;Max_cycle;Signal;HPM_P1;HPM_P2
2021/10/02 00:41:47;;;;;;;30.50;13.47;;;;;;;;;;5030836;28;20044;-77
2021/10/02 00:46:57;;;;;;;30.20;14.30;;;;;;;;;;5030458;28;20535;-77
2021/10/02 00:49:23;;;;;;;30.57;12.70;;;;;;;;;;5028454;28;20543;-77
2021/10/02 00:51:49;;;;;;;27.87;13.50;;;;;;;;;;5028581;28;20033;-78
2021/10/02 00:54:15;;;;;;;28.73;13.37;;;;;;;;;;5029741;28;20112;-77
2021/10/02 00:56:40;;;;;;;27.77;14.50;;;;;;;;;;5028267;28;20040;-77
2021/10/02 00:59:06;;;;;;;26.87;13.77;;;;;;;;;;5029626;28;20047;-76
2021/10/02 01:01:44;;;;;;;34.77;14.70;;;;;;;;;;5028373;28;20036;-77
2021/10/02 01:04:30;;;;;;;34.40;15.13;;;;;;;;;;5030250;28;20504;-76
2021/10/02 01:07:22;;;;;;;26.70;13.40;;;;;;;;;;5028579;28;20057;-76
2021/10/02 01:09:51;;;;;;;33.43;14.83;;;;;;;;;;5030304;28;20017;-78
2021/10/02 01:12:19;;;;;;;27.10;14.30;;;;;;;;;;5029840;28;20033;-77
2021/10/02 01:15:24;;;;;;;30.93;14.70;;;;;;;;;;5028404;28;20116;-76
2021/10/02 01:18:01;;;;;;;29.40;13.93;;;;;;;;;;4987651;28;20039;-76
2021/10/02 01:20:32;;;;;;;36.00;15.00;;;;;;;;;;5038549;28;20053;-76
2021/10/02 01:23:11;;;;;;;28.88;14.48;;;;;;;;;;5029717;28;20052;-77
2021/10/02 01:25:52;;;;;;;32.60;14.50;;;;;;;;;;5029540;28;20061;-77
2021/10/02 01:28:20;;;;;;;32.33;14.20;;;;;;;;;;5029788;28;20028;-77
2021/10/02 01:47:16;;;;;;;28.37;14.27;;;;;;;;;;5034712;28;20048;-76
2021/10/02 01:49:52;;;;;;;39.00;15.73;;;;;;;;;;5032969;28;20032;-76
2021/10/02 01:52:30;;;;;;;28.47;15.97;;;;;;;;;;5034217;28;20033;-77
2021/10/02 01:54:56;;;;;;;32.03;14.63;;;;;;;;;;5032620;28;20021;-77
2021/10/02 01:57:34;;;;;;;35.87;17.27;;;;;;;;;;5033395;28;20029;-77
2021/10/02 02:00:04;;;;;;;40.87;15.50;;;;;;;;;;5033107;28;20030;-77
2021/10/02 02:02:33;;;;;;;36.87;16.60;;;;;;;;;;5032859;28;20025;-77
2021/10/02 02:05:00;;;;;;;32.60;14.20;;;;;;;;;;5032814;28;20075;-77
2021/10/02 02:07:28;;;;;;;30.80;14.53;;;;;;;;;;5033114;28;20155;-75
2021/10/02 02:09:56;;;;;;;34.70;15.40;;;;;;;;;;5032752;28;20037;-76
2021/10/02 02:12:23;;;;;;;32.17;14.93;;;;;;;;;;5031581;28;20371;-77
2021/10/02 02:14:50;;;;;;;34.70;14.60;;;;;;;;;;5031314;28;20025;-77
2021/10/02 02:17:20;;;;;;;32.07;14.53;;;;;;;;;;5032767;28;20251;-75
2021/10/02 02:19:46;;;;;;;27.63;14.60;;;;;;;;;;5032653;28;20025;-76
2021/10/02 02:22:12;;;;;;;35.70;17.47;;;;;;;;;;5033054;28;20029;-77
2021/10/02 02:24:38;;;;;;;34.17;15.60;;;;;;;;;;5032427;28;20128;-77
2021/10/02 02:27:04;;;;;;;31.83;15.00;;;;;;;;;;5035271;28;20041;-77
2021/10/02 02:29:32;;;;;;;32.10;15.67;;;;;;;;;;5031508;28;20049;-76
2021/10/02 02:31:59;;;;;;;30.27;14.43;;;;;;;;;;5031193;28;20033;-76
2021/10/02 02:34:25;;;;;;;29.13;14.20;;;;;;;;;;5032416;28;20053;-76
2021/10/02 02:36:51;;;;;;;35.67;15.10;;;;;;;;;;5032075;28;20017;-77
2021/10/02 02:39:17;;;;;;;31.17;14.10;;;;;;;;;;5031182;28;20388;-76
2021/10/02 02:41:42;;;;;;;31.60;13.97;;;;;;;;;;5032527;28;20060;-76
2021/10/02 02:44:10;;;;;;;29.87;14.50;;;;;;;;;;5032629;28;20481;-76
2021/10/02 02:46:37;;;;;;;30.77;14.27;;;;;;;;;;5044447;28;20032;-76
2021/10/02 02:49:20;;;;;;;37.30;14.27;;;;;;;;;;5041963;28;20024;-77
2021/10/02 02:52:07;;;;;;;33.03;14.17;;;;;;;;;;5037292;28;20036;-77
2021/10/02 02:55:09;;;;;;;33.63;14.87;;;;;;;;;;5032685;28;20021;-76
2021/10/02 02:57:40;;;;;;;35.38;13.95;;;;;;;;;;5031446;28;20061;-76
2021/10/02 03:00:10;;;;;;;35.37;15.13;;;;;;;;;;5034539;28;20087;-75
2021/10/02 03:02:41;;;;;;;36.87;14.80;;;;;;;;;;5033411;28;20559;-76
2021/10/02 03:05:07;;;;;;;32.63;15.20;;;;;;;;;;5032204;28;20024;-75
2021/10/02 03:07:39;;;;;;;32.07;14.93;;;;;;;;;;5030740;28;20028;-75
2021/10/02 03:10:08;;;;;;;36.70;16.15;;;;;;;;;;5030490;28;20488;-76
2021/10/02 03:12:38;;;;;;;31.23;14.63;;;;;;;;;;5032090;28;20029;-77
2021/10/02 03:15:05;;;;;;;36.47;14.97;;;;;;;;;;5030516;28;20079;-76
2021/10/02 03:17:31;;;;;;;30.97;15.03;;;;;;;;;;5031694;28;20450;-77
2021/10/02 03:19:59;;;;;;;37.70;16.30;;;;;;;;;;5031840;28;20049;-76
2021/10/02 03:22:28;;;;;;;30.10;15.27;;;;;;;;;;5034571;28;20061;-77
2021/10/02 03:24:56;;;;;;;34.07;15.23;;;;;;;;;;5035769;28;20421;-76
2021/10/02 03:27:22;;;;;;;32.13;15.73;;;;;;;;;;5031881;28;20087;-76
2021/10/02 03:29:49;;;;;;;35.03;15.67;;;;;;;;;;5031657;28;20488;-76
2021/10/02 03:32:15;;;;;;;31.83;14.63;;;;;;;;;;5030415;28;20241;-76
2021/10/02 03:34:41;;;;;;;41.47;16.93;;;;;;;;;;5031025;28;20045;-76
2021/10/02 03:37:07;;;;;;;33.87;15.83;;;;;;;;;;5031313;28;20032;-76
2021/10/02 03:39:33;;;;;;;43.20;17.00;;;;;;;;;;5029711;28;20036;-76
2021/10/02 03:42:23;;;;;;;33.57;15.47;;;;;;;;;;5031235;28;20083;-77
2021/10/02 03:44:51;;;;;;;42.67;16.10;;;;;;;;;;5030187;28;20033;-76
2021/10/02 03:47:21;;;;;;;41.57;16.67;;;;;;;;;;5029806;28;20604;-77
2021/10/02 03:49:47;;;;;;;38.33;16.03;;;;;;;;;;5013456;28;20041;-76
2021/10/02 03:52:15;;;;;;;35.30;14.53;;;;;;;;;;5013117;28;20038;-71
2021/10/02 03:54:41;;;;;;;40.53;14.70;;;;;;;;;;5030559;28;20045;-72
2021/10/02 03:57:07;;;;;;;40.17;16.13;;;;;;;;;;5029068;28;20037;-72
2021/10/02 03:59:33;;;;;;;34.00;15.50;;;;;;;;;;5030260;28;20030;-73
2021/10/02 04:01:59;;;;;;;37.23;15.60;;;;;;;;;;5030426;28;20091;-73
2021/10/02 04:04:24;;;;;;;43.83;16.33;;;;;;;;;;5030687;28;20040;-72
2021/10/02 04:06:50;;;;;;;29.83;12.70;;;;;;;;;;5030171;28;20060;-73
2021/10/02 04:09:17;;;;;;;31.43;13.90;;;;;;;;;;5030415;28;20021;-72
2021/10/02 04:11:43;;;;;;;30.90;14.33;;;;;;;;;;5030123;28;20478;-72
2021/10/02 04:14:08;;;;;;;27.87;12.77;;;;;;;;;;5030361;28;20040;-72
2021/10/02 04:16:34;;;;;;;44.50;14.10;;;;;;;;;;5028468;28;20036;-72
2021/10/02 04:18:59;;;;;;;28.23;13.17;;;;;;;;;;5028842;28;20120;-72
2021/10/02 04:21:25;;;;;;;32.17;12.77;;;;;;;;;;5030287;28;20041;-73
2021/10/02 04:23:51;;;;;;;29.47;14.07;;;;;;;;;;5029779;28;20051;-72
2021/10/02 04:26:18;;;;;;;35.50;14.67;;;;;;;;;;5028867;28;20095;-73
2021/10/02 04:28:43;;;;;;;30.77;13.20;;;;;;;;;;5029879;28;20063;-73
2021/10/02 04:31:09;;;;;;;28.50;13.73;;;;;;;;;;5030028;28;20056;-72
2021/10/02 04:33:35;;;;;;;28.70;12.90;;;;;;;;;;5029548;28;20050;-71
2021/10/02 04:36:01;;;;;;;34.37;14.23;;;;;;;;;;5029816;28;20022;-71
2021/10/02 04:38:26;;;;;;;34.33;14.77;;;;;;;;;;5028295;28;20037;-72
2021/10/02 04:40:55;;;;;;;33.87;14.33;;;;;;;;;;5029579;28;20037;-72
2021/10/02 04:43:21;;;;;;;33.87;14.10;;;;;;;;;;5029726;28;20029;-72
2021/10/02 04:45:47;;;;;;;35.93;15.50;;;;;;;;;;5028624;28;20485;-72
2021/10/02 04:48:13;;;;;;;97.53;76.80;;;;;;;;;;5029589;28;20226;-72
2021/10/02 04:50:38;;;;;;;34.20;17.83;;;;;;;;;;5029538;28;20031;-72
2021/10/02 04:53:04;;;;;;;31.33;14.80;;;;;;;;;;5028409;28;20033;-71
2021/10/02 04:55:30;;;;;;;30.70;13.83;;;;;;;;;;5028350;28;20400;-74
2021/10/02 04:57:56;;;;;;;36.37;16.43;;;;;;;;;;5030130;28;20041;-73
2021/10/02 05:00:21;;;;;;;31.40;13.93;;;;;;;;;;5032110;28;20029;-71
2021/10/02 05:02:46;;;;;;;30.00;13.67;;;;;;;;;;5030165;28;20420;-72
2021/10/02 05:05:13;;;;;;;26.70;13.53;;;;;;;;;;5028130;28;20083;-71
2021/10/02 05:07:39;;;;;;;29.87;12.93;;;;;;;;;;5029338;28;20025;-73
2021/10/02 05:10:04;;;;;;;38.97;14.70;;;;;;;;;;5028193;28;20039;-72
2021/10/02 05:12:30;;;;;;;28.23;13.17;;;;;;;;;;5028114;28;20026;-72
2021/10/02 05:14:55;;;;;;;30.67;13.73;;;;;;;;;;5029363;28;20092;-72
2021/10/02 05:17:21;;;;;;;28.27;13.40;;;;;;;;;;5027979;28;20035;-72
2021/10/02 05:19:46;;;;;;;39.67;16.40;;;;;;;;;;5030656;28;20065;-73
2021/10/02 05:22:12;;;;;;;30.43;14.77;;;;;;;;;;5032181;28;20043;-72
2021/10/02 05:24:37;;;;;;;29.27;13.67;;;;;;;;;;5033423;28;20060;-72
2021/10/02 05:27:06;;;;;;;31.97;13.80;;;;;;;;;;5033390;28;20125;-72
2021/10/02 05:29:33;;;;;;;34.80;15.37;;;;;;;;;;5031777;28;20057;-72
2021/10/02 05:31:59;;;;;;;28.20;14.83;;;;;;;;;;5031768;28;20029;-71
2021/10/02 05:34:24;;;;;;;31.70;14.47;;;;;;;;;;5033194;28;20060;-71
2021/10/02 05:36:50;;;;;;;32.70;14.43;;;;;;;;;;5033305;28;20401;-71
2021/10/02 05:39:17;;;;;;;31.87;14.17;;;;;;;;;;5033091;28;20469;-73
2021/10/02 05:41:43;;;;;;;47.63;16.23;;;;;;;;;;5032934;28;20041;-71
2021/10/02 05:44:08;;;;;;;52.97;24.43;;;;;;;;;;5033077;28;20034;-72
2021/10/02 05:46:34;;;;;;;36.80;15.73;;;;;;;;;;5031915;28;20126;-72
2021/10/02 05:48:59;;;;;;;35.43;14.53;;;;;;;;;;5031480;28;20026;-72
2021/10/02 05:51:25;;;;;;;32.23;15.37;;;;;;;;;;5031550;28;20037;-72
2021/10/02 05:53:52;;;;;;;39.83;15.00;;;;;;;;;;5032650;28;20033;-73
2021/10/02 05:56:18;;;;;;;35.17;14.83;;;;;;;;;;5032919;28;20555;-72
2021/10/02 05:58:43;;;;;;;40.13;14.60;;;;;;;;;;5031075;28;20109;-72
2021/10/02 06:01:09;;;;;;;30.83;14.30;;;;;;;;;;5032750;28;20033;-73
2021/10/02 06:03:34;;;;;;;31.73;14.00;;;;;;;;;;5032902;28;20033;-71
2021/10/02 06:06:00;;;;;;;37.30;17.17;;;;;;;;;;5032724;28;20036;-72
2021/10/02 06:08:29;;;;;;;36.70;15.30;;;;;;;;;;5031367;28;20521;-71
2021/10/02 06:10:56;;;;;;;37.90;16.63;;;;;;;;;;5032466;28;20087;-73
2021/10/02 06:13:22;;;;;;;39.23;16.33;;;;;;;;;;5032672;28;20030;-71
2021/10/02 06:15:48;;;;;;;42.37;17.17;;;;;;;;;;5030904;28;20043;-73
2021/10/02 06:18:14;;;;;;;38.93;14.80;;;;;;;;;;5032596;28;20021;-72
2021/10/02 06:20:39;;;;;;;29.60;14.50;;;;;;;;;;5032457;28;20037;-71
2021/10/02 06:23:05;;;;;;;36.70;16.37;;;;;;;;;;5032482;28;20379;-73
2021/10/02 06:25:32;;;;;;;37.23;14.97;;;;;;;;;;5032545;28;20448;-73
2021/10/02 06:27:57;;;;;;;37.90;15.03;;;;;;;;;;5032226;28;20060;-72
2021/10/02 06:30:23;;;;;;;28.27;14.77;;;;;;;;;;5032152;28;20063;-72
2021/10/02 06:32:48;;;;;;;33.60;18.80;;;;;;;;;;5030868;28;20349;-71
2021/10/02 06:35:15;;;;;;;26.03;14.17;;;;;;;;;;5030722;28;20116;-72
2021/10/02 06:37:43;;;;;;;26.53;13.77;;;;;;;;;;5031014;28;20026;-74
2021/10/02 06:40:11;;;;;;;27.30;14.27;;;;;;;;;;5032422;28;20029;-71
2021/10/02 06:42:36;;;;;;;27.50;13.73;;;;;;;;;;5014240;28;20026;-73
2021/10/02 06:45:04;;;;;;;27.60;13.07;;;;;;;;;;5031792;28;20033;-71
2021/10/02 06:47:29;;;;;;;35.33;13.57;;;;;;;;;;5030561;28;20389;-73
2021/10/02 06:50:00;;;;;;;32.83;15.00;;;;;;;;;;5032184;28;20056;-72
2021/10/02 06:52:27;;;;;;;31.73;15.73;;;;;;;;;;5032325;28;20036;-70
2021/10/02 06:54:53;;;;;;;40.50;14.70;;;;;;;;;;5030414;28;20025;-72
2021/10/02 06:57:19;;;;;;;26.33;13.73;;;;;;;;;;5030720;28;20033;-73
2021/10/02 06:59:44;;;;;;;28.83;13.97;;;;;;;;;;5030250;28;20470;-73
2021/10/02 07:02:10;;;;;;;26.47;13.23;;;;;;;;;;5030055;28;20029;-72
2021/10/02 07:04:35;;;;;;;27.53;13.10;;;;;;;;;;5030143;28;20091;-71
2021/10/02 07:07:01;;;;;;;28.37;13.33;;;;;;;;;;5030077;28;20064;-71
2021/10/02 07:09:28;;;;;;;49.03;15.10;;;;;;;;;;5031635;28;20038;-72
2021/10/02 07:11:54;;;;;;;32.30;14.67;;;;;;;;;;5031067;28;20030;-73
2021/10/02 07:14:19;;;;;;;30.13;15.30;;;;;;;;;;5031670;28;20037;-73
2021/10/02 07:16:46;;;;;;;26.90;13.47;;;;;;;;;;5031516;28;20473;-74
2021/10/02 07:19:12;;;;;;;31.93;13.57;;;;;;;;;;5031239;28;20037;-73
2021/10/02 07:21:37;;;;;;;22.70;12.00;;;;;;;;;;5031334;28;20041;-72
2021/10/02 07:24:03;;;;;;;26.13;13.40;;;;;;;;;;5031316;28;20057;-72
2021/10/02 07:26:29;;;;;;;29.67;13.87;;;;;;;;;;5030248;28;20025;-72
2021/10/02 07:28:54;;;;;;;28.83;13.80;;;;;;;;;;5029187;28;20031;-74
2021/10/02 07:31:20;;;;;;;28.70;14.05;;;;;;;;;;5029643;28;20095;-73
2021/10/02 07:33:48;;;;;;;32.08;14.13;;;;;;;;;;5030778;28;20061;-72
2021/10/02 07:36:15;;;;;;;28.90;13.80;;;;;;;;;;5029708;28;20382;-73
2021/10/02 07:38:41;;;;;;;33.75;14.98;;;;;;;;;;5030954;28;20029;-71
2021/10/02 07:41:08;;;;;;;31.98;14.52;;;;;;;;;;5029292;28;20448;-72
2021/10/02 07:43:34;;;;;;;28.95;13.27;;;;;;;;;;5013179;28;20405;-72
2021/10/02 07:46:01;;;;;;;42.92;18.75;;;;;;;;;;5029369;28;20537;-71
2021/10/02 07:48:27;;;;;;;29.05;13.75;;;;;;;;;;5030357;28;20053;-73
2021/10/02 07:50:54;;;;;;;32.13;14.60;;;;;;;;;;5030394;28;20075;-71
2021/10/02 07:53:22;;;;;;;24.60;12.05;;;;;;;;;;5031129;28;20033;-72
2021/10/02 07:55:49;;;;;;;32.35;13.70;;;;;;;;;;5031505;28;20503;-72
2021/10/02 07:58:15;;;;;;;24.45;12.27;;;;;;;;;;5029109;28;20032;-72
2021/10/02 08:00:41;;;;;;;31.83;14.05;;;;;;;;;;5029209;28;20512;-72
2021/10/02 08:03:07;;;;;;;27.33;13.88;;;;;;;;;;5030057;28;20029;-72
2021/10/02 08:05:33;;;;;;;27.55;12.73;;;;;;;;;;5030155;28;20033;-73
2021/10/02 08:08:01;;;;;;;28.95;13.82;;;;;;;;;;5030343;28;20022;-72
2021/10/02 08:10:28;;;;;;;29.20;12.80;;;;;;;;;;5029078;28;20095;-72
2021/10/02 08:12:55;;;;;;;28.85;12.88;;;;;;;;;;5028700;28;20026;-73
2021/10/02 08:15:21;;;;;;;29.05;12.55;;;;;;;;;;5030187;28;20535;-72
2021/10/02 08:17:48;;;;;;;33.17;12.68;;;;;;;;;;5030031;28;20334;-71
2021/10/02 08:20:17;;;;;;;27.60;12.82;;;;;;;;;;5028860;28;20056;-74
2021/10/02 08:22:46;;;;;;;25.50;13.15;;;;;;;;;;5030297;28;20040;-72
2021/10/02 08:25:16;;;;;;;28.52;12.13;;;;;;;;;;5028605;28;20353;-72
2021/10/02 08:27:42;;;;;;;27.70;11.93;;;;;;;;;;5028960;28;20030;-72
2021/10/02 08:30:10;;;;;;;29.50;15.70;;;;;;;;;;5029933;28;20033;-73
2021/10/02 08:32:36;;;;;;;33.45;17.65;;;;;;;;;;5012513;28;20134;-74
2021/10/02 08:35:05;;;;;;;39.28;13.60;;;;;;;;;;5029521;28;20056;-72
2021/10/02 08:37:31;;;;;;;64.53;26.40;;;;;;;;;;5029903;28;20086;-73
2021/10/02 08:39:56;;;;;;;24.13;11.77;;;;;;;;;;5029679;28;20028;-74
2021/10/02 08:42:25;;;;;;;37.58;22.38;;;;;;;;;;5012148;28;20036;-72
2021/10/02 08:44:52;;;;;;;23.58;13.90;;;;;;;;;;5028471;28;20029;-72
2021/10/02 08:47:21;;;;;;;21.55;11.02;;;;;;;;;;5029918;28;20025;-72
2021/10/02 08:49:48;;;;;;;20.23;10.20;;;;;;;;;;5028499;28;20030;-71
2021/10/02 08:52:16;;;;;;;22.85;11.30;;;;;;;;;;5028488;28;20037;-71
2021/10/02 08:54:45;;;;;;;29.58;13.38;;;;;;;;;;5029665;28;20048;-71
2021/10/02 08:57:20;;;;;;;27.58;13.70;;;;;;;;;;5011580;28;20086;-73
2021/10/02 08:59:45;;;;;;;30.73;12.05;;;;;;;;;;5028479;28;20049;-73
2021/10/02 09:02:11;;;;;;;26.25;10.75;;;;;;;;;;5029336;28;20099;-72
2021/10/02 09:04:37;;;;;;;45.25;16.65;;;;;;;;;;5029456;28;20025;-71
2021/10/02 09:07:05;;;;;;;18.42;10.63;;;;;;;;;;5029262;28;20087;-71
2021/10/02 09:09:31;;;;;;;17.95;9.18;;;;;;;;;;5029308;28;20025;-72
2021/10/02 09:11:57;;;;;;;18.98;10.75;;;;;;;;;;5027814;28;20029;-74
2021/10/02 09:14:22;;;;;;;14.75;8.65;;;;;;;;;;5029720;28;20450;-71
2021/10/02 09:16:48;;;;;;;20.15;8.98;;;;;;;;;;5027957;28;20540;-72
2021/10/02 09:19:14;;;;;;;17.23;9.00;;;;;;;;;;5029096;28;20041;-72
2021/10/02 09:21:57;;;;;;;109.18;92.32;;;;;;;;;;5027905;28;20065;-74
2021/10/02 09:24:25;;;;;;;16.42;9.75;;;;;;;;;;5029192;28;20108;-72
2021/10/02 09:26:50;;;;;;;16.88;8.63;;;;;;;;;;5027561;28;20029;-73
2021/10/02 09:29:17;;;;;;;19.40;9.32;;;;;;;;;;5028836;28;20108;-72
2021/10/02 09:31:43;;;;;;;15.18;8.43;;;;;;;;;;5027466;28;20357;-72
2021/10/02 09:34:25;;;;;;;18.95;8.13;;;;;;;;;;5027255;28;20057;-71
2021/10/02 09:36:51;;;;;;;18.60;7.43;;;;;;;;;;5029541;28;20033;-73
2021/10/02 09:39:17;;;;;;;16.70;7.65;;;;;;;;;;5027607;28;20041;-72
2021/10/02 09:41:52;;;;;;;18.85;8.35;;;;;;;;;;5027817;28;20441;-71
2021/10/02 09:44:23;;;;;;;13.50;7.40;;;;;;;;;;5029278;28;20056;-71
2021/10/02 09:46:49;;;;;;;18.63;7.68;;;;;;;;;;5029381;28;20029;-74
2021/10/02 09:49:14;;;;;;;22.25;8.15;;;;;;;;;;5027560;28;20401;-74
2021/10/02 09:51:41;;;;;;;14.95;6.93;;;;;;;;;;5029105;28;20033;-73
2021/10/02 09:54:08;;;;;;;16.88;7.35;;;;;;;;;;5028902;28;20119;-73
2021/10/02 09:56:33;;;;;;;17.58;7.30;;;;;;;;;;5029039;28;20520;-72
2021/10/02 09:59:00;;;;;;;13.88;7.45;;;;;;;;;;5028991;28;20053;-73
2021/10/02 10:01:27;;;;;;;13.15;6.60;;;;;;;;;;5028562;28;20410;-73
2021/10/02 10:03:54;;;;;;;14.48;7.30;;;;;;;;;;5027495;28;20033;-71
2021/10/02 10:06:27;;;;;;;14.98;7.05;;;;;;;;;;5030022;28;20511;-73
2021/10/02 10:09:02;;;;;;;16.15;7.47;;;;;;;;;;5031492;28;20116;-74
2021/10/02 10:11:43;;;;;;;16.88;7.82;;;;;;;;;;5032595;28;20094;-73
2021/10/02 10:14:15;;;;;;;13.45;6.88;;;;;;;;;;5032405;28;20029;-72
2021/10/02 10:16:42;;;;;;;20.40;8.82;;;;;;;;;;5032683;28;20025;-72
2021/10/02 10:19:21;;;;;;;17.08;8.15;;;;;;;;;;5031308;28;20516;-72
2021/10/02 10:22:07;;;;;;;13.45;7.28;;;;;;;;;;5032846;28;20056;-71
2021/10/02 10:24:34;;;;;;;15.98;8.00;;;;;;;;;;5031330;28;20112;-72
2021/10/02 10:27:00;;;;;;;15.60;8.27;;;;;;;;;;5031240;28;20473;-72
2021/10/02 10:30:03;;;;;;;14.25;8.20;;;;;;;;;;5032447;28;20127;-72
2021/10/02 10:32:29;;;;;;;21.35;9.00;;;;;;;;;;5025420;28;20047;-73
2021/10/02 10:34:54;;;;;;;19.23;8.32;;;;;;;;;;5030602;28;20065;-74
2021/10/02 10:37:20;;;;;;;16.42;8.13;;;;;;;;;;5030689;28;20500;-72
2021/10/02 10:39:46;;;;;;;14.93;7.05;;;;;;;;;;5032499;28;20033;-74
2021/10/02 10:42:12;;;;;;;18.50;7.57;;;;;;;;;;5031906;28;20381;-73
2021/10/02 10:44:38;;;;;;;15.70;7.35;;;;;;;;;;5032389;28;20051;-72
2021/10/02 10:47:04;;;;;;;15.25;7.72;;;;;;;;;;5030823;28;20030;-73
2021/10/02 10:49:29;;;;;;;13.90;7.32;;;;;;;;;;5032019;28;20087;-73
2021/10/02 10:51:59;;;;;;;13.80;7.20;;;;;;;;;;5031791;28;20464;-75
2021/10/02 10:54:25;;;;;;;13.25;6.85;;;;;;;;;;5032187;28;20393;-74
2021/10/02 10:56:52;;;;;;;17.40;8.05;;;;;;;;;;5032338;28;20022;-72
2021/10/02 10:59:19;;;;;;;15.82;7.90;;;;;;;;;;5031625;28;20025;-74
2021/10/02 11:01:46;;;;;;;16.35;6.32;;;;;;;;;;5031529;28;20275;-73
2021/10/02 11:04:43;;;;;;;11.32;6.18;;;;;;;;;;5031458;28;20048;-72
2021/10/02 11:07:13;;;;;;;14.68;6.35;;;;;;;;;;5013512;28;20111;-72
2021/10/02 11:09:44;;;;;;;17.15;7.43;;;;;;;;;;5030344;28;20053;-72
2021/10/02 11:12:14;;;;;;;15.57;7.57;;;;;;;;;;5030242;28;20021;-72
2021/10/02 11:14:50;;;;;;;18.77;8.20;;;;;;;;;;5031476;28;20053;-72
2021/10/02 11:17:33;;;;;;;13.55;7.72;;;;;;;;;;5028995;28;20033;-75
2021/10/02 11:20:22;;;;;;;14.07;7.60;;;;;;;;;;5030298;28;20493;-74
2021/10/02 11:23:45;;;;;;;13.52;7.05;;;;;;;;;;5031455;28;20465;-72
2021/10/02 11:26:18;;;;;;;12.18;7.45;;;;;;;;;;5031207;28;20053;-73
2021/10/02 11:28:46;;;;;;;12.30;7.35;;;;;;;;;;5031874;28;20043;-73
2021/10/02 11:31:17;;;;;;;14.20;7.43;;;;;;;;;;5031233;28;20025;-75
2021/10/02 11:33:49;;;;;;;24.77;6.85;;;;;;;;;;5030688;28;20140;-74
2021/10/02 11:39:28;;;;;;;11.00;6.68;;;;;;;;;;5031121;28;19920;-72
2021/10/02 11:41:55;;;;;;;23.17;7.80;;;;;;;;;;5030982;28;20028;-72
2021/10/02 11:44:30;;;;;;;13.73;6.82;;;;;;;;;;5030829;28;20050;-74
2021/10/02 11:47:33;;;;;;;12.70;6.75;;;;;;;;;;5029390;28;20029;-72
2021/10/02 11:50:11;;;;;;;12.63;6.72;;;;;;;;;;5030648;28;20040;-73
2021/10/02 11:52:56;;;;;;;13.23;6.47;;;;;;;;;;5029618;28;20061;-74
2021/10/02 11:55:52;;;;;;;12.75;7.13;;;;;;;;;;5028512;28;20032;-73
2021/10/02 11:58:18;;;;;;;16.83;6.85;;;;;;;;;;5016547;28;20121;-71
2021/10/02 12:00:45;;;;;;;12.23;6.82;;;;;;;;;;5030417;28;20112;-73
2021/10/02 12:03:15;;;;;;;17.10;7.00;;;;;;;;;;5028863;28;20033;-73
2021/10/02 12:05:47;;;;;;;13.57;6.38;;;;;;;;;;5026780;28;20032;-72
2021/10/02 12:08:13;;;;;;;14.95;7.13;;;;;;;;;;5029605;28;20061;-74
2021/10/02 12:11:04;;;;;;;15.68;6.85;;;;;;;;;;5029095;28;20072;-72
2021/10/02 12:13:31;;;;;;;15.98;7.05;;;;;;;;;;5030293;28;20391;-73
2021/10/02 12:16:00;;;;;;;15.93;7.05;;;;;;;;;;5029979;28;20504;-73
2021/10/02 12:18:46;;;;;;;16.80;7.25;;;;;;;;;;5029186;28;20033;-76
2021/10/02 12:21:32;;;;;;;15.48;6.90;;;;;;;;;;5030173;28;20030;-75
2021/10/02 12:24:07;;;;;;;14.90;7.28;;;;;;;;;;5045166;28;20064;-74
2021/10/02 12:26:50;;;;;;;15.60;7.90;;;;;;;;;;5028777;28;20037;-73
2021/10/02 12:29:20;;;;;;;17.00;8.20;;;;;;;;;;5030242;28;20021;-71
2021/10/02 12:32:05;;;;;;;16.15;7.20;;;;;;;;;;5030646;28;20028;-72
2021/10/02 12:34:32;;;;;;;20.60;7.72;;;;;;;;;;5030167;28;20045;-73
2021/10/02 12:37:13;;;;;;;19.23;8.93;;;;;;;;;;5030224;28;20115;-74
2021/10/02 12:40:01;;;;;;;15.75;6.93;;;;;;;;;;5024489;28;20074;-73
2021/10/02 12:42:38;;;;;;;16.20;7.65;;;;;;;;;;5028724;28;20025;-75
2021/10/02 12:45:19;;;;;;;15.20;7.70;;;;;;;;;;5028181;28;20025;-72
2021/10/02 12:47:48;;;;;;;15.93;7.80;;;;;;;;;;5028492;28;20142;-72
2021/10/02 12:50:23;;;;;;;17.15;7.45;;;;;;;;;;5029590;28;20079;-73
2021/10/02 12:52:52;;;;;;;20.63;12.55;;;;;;;;;;5028770;28;20086;-72
2021/10/02 12:55:18;;;;;;;15.98;7.43;;;;;;;;;;5029692;28;20093;-74
2021/10/02 12:57:46;;;;;;;18.88;7.80;;;;;;;;;;5028227;28;20318;-73
2021/10/02 13:00:21;;;;;;;17.52;6.68;;;;;;;;;;5028407;28;20029;-72
2021/10/02 13:02:55;;;;;;;17.55;7.70;;;;;;;;;;5029400;28;20080;-73
2021/10/02 13:05:23;;;;;;;10.30;6.13;;;;;;;;;;5029550;28;20713;-72
2021/10/02 13:07:51;;;;;;;15.32;8.13;;;;;;;;;;5028072;28;20039;-73
2021/10/02 13:10:37;;;;;;;14.82;6.95;;;;;;;;;;5027820;28;20079;-74
2021/10/02 13:13:04;;;;;;;15.50;8.02;;;;;;;;;;5027716;28;20179;-74
2021/10/02 13:15:54;;;;;;;14.93;7.15;;;;;;;;;;5027968;28;20032;-73
2021/10/02 13:18:25;;;;;;;14.98;7.40;;;;;;;;;;5019975;28;20038;-73
2021/10/02 13:21:01;;;;;;;24.77;7.45;;;;;;;;;;5028183;28;20037;-74
2021/10/02 13:23:39;;;;;;;16.77;6.88;;;;;;;;;;5029222;28;20031;-75
2021/10/02 13:26:21;;;;;;;18.08;7.93;;;;;;;;;;5028958;28;20096;-73
2021/10/02 13:28:54;;;;;;;15.13;7.38;;;;;;;;;;5044538;28;20476;-74
2021/10/02 13:31:29;;;;;;;15.95;8.13;;;;;;;;;;5028979;28;20079;-74
2021/10/02 13:34:03;;;;;;;36.33;7.90;;;;;;;;;;5027592;28;20555;-73
2021/10/02 13:36:34;;;;;;;33.63;10.13;;;;;;;;;;5010972;28;20042;-75
2021/10/02 13:39:13;;;;;;;23.83;8.48;;;;;;;;;;5028180;28;20533;-73
2021/10/02 13:41:43;;;;;;;17.33;7.07;;;;;;;;;;5032716;28;20037;-76
2021/10/02 13:44:11;;;;;;;12.57;6.78;;;;;;;;;;5031806;28;20025;-73
2021/10/02 13:46:43;;;;;;;15.68;7.13;;;;;;;;;;5032054;28;20060;-74
2021/10/02 13:49:14;;;;;;;15.95;7.00;;;;;;;;;;5032198;28;20127;-73
2021/10/02 13:51:41;;;;;;;12.55;6.90;;;;;;;;;;5015901;28;20057;-75
2021/10/02 13:54:06;;;;;;;16.90;7.90;;;;;;;;;;5031579;28;20284;-74
2021/10/02 13:56:41;;;;;;;23.15;9.93;;;;;;;;;;5031690;28;20466;-72
2021/10/02 13:59:08;;;;;;;14.68;7.13;;;;;;;;;;5031064;28;20064;-73
2021/10/02 14:01:34;;;;;;;20.25;7.15;;;;;;;;;;5015193;28;20040;-72
2021/10/02 14:04:00;;;;;;;20.63;7.88;;;;;;;;;;5031810;28;20030;-72
2021/10/02 14:06:26;;;;;;;14.68;7.35;;;;;;;;;;5031508;28;20112;-71
2021/10/02 14:08:52;;;;;;;18.17;8.77;;;;;;;;;;5031326;28;20122;-74
2021/10/02 14:11:17;;;;;;;16.90;8.00;;;;;;;;;;5032617;28;20095;-71
2021/10/02 14:13:44;;;;;;;16.17;7.32;;;;;;;;;;5032623;28;20446;-74
2021/10/02 14:16:10;;;;;;;15.63;6.47;;;;;;;;;;5032409;28;20079;-73
2021/10/02 14:18:36;;;;;;;23.58;6.72;;;;;;;;;;5032298;28;20033;-73
2021/10/02 14:21:01;;;;;;;16.70;6.63;;;;;;;;;;5032465;28;20071;-72
2021/10/02 14:23:27;;;;;;;18.20;7.22;;;;;;;;;;5032174;28;20029;-73
2021/10/02 14:25:53;;;;;;;13.90;7.20;;;;;;;;;;5032420;28;20033;-74
2021/10/02 14:28:18;;;;;;;13.38;6.70;;;;;;;;;;5030952;28;20033;-72
2021/10/02 14:30:44;;;;;;;16.13;7.55;;;;;;;;;;5030916;28;20041;-73
2021/10/02 14:33:10;;;;;;;13.35;6.95;;;;;;;;;;5032287;28;20059;-74
2021/10/02 14:35:35;;;;;;;18.50;7.55;;;;;;;;;;5031367;28;20042;-74
2021/10/02 14:38:01;;;;;;;11.82;7.35;;;;;;;;;;5032279;28;20397;-73
2021/10/02 14:40:29;;;;;;;15.75;7.00;;;;;;;;;;5031125;28;20484;-74
2021/10/02 14:42:54;;;;;;;14.93;6.88;;;;;;;;;;5030618;28;20021;-73
2021/10/02 14:45:25;;;;;;;16.33;6.70;;;;;;;;;;5031806;28;20126;-73
2021/10/02 14:47:51;;;;;;;15.15;6.80;;;;;;;;;;5031999;28;20029;-73
2021/10/02 14:50:17;;;;;;;14.80;7.30;;;;;;;;;;5032066;28;20096;-74
2021/10/02 14:52:44;;;;;;;17.25;6.57;;;;;;;;;;5030691;28;20175;-73
2021/10/02 14:55:11;;;;;;;13.55;6.30;;;;;;;;;;5030382;28;20128;-74
2021/10/02 14:57:37;;;;;;;13.82;6.78;;;;;;;;;;5030265;28;20032;-73
2021/10/02 15:00:06;;;;;;;16.08;7.28;;;;;;;;;;5030096;28;20029;-73
2021/10/02 15:02:32;;;;;;;11.45;6.53;;;;;;;;;;5029885;28;20071;-74
2021/10/02 15:04:58;;;;;;;14.20;6.72;;;;;;;;;;5031818;28;20025;-75
2021/10/02 15:07:25;;;;;;;14.73;6.90;;;;;;;;;;5013613;28;20394;-72
2021/10/02 15:09:53;;;;;;;14.00;6.10;;;;;;;;;;5031631;28;20096;-72
2021/10/02 15:12:19;;;;;;;11.88;6.25;;;;;;;;;;5029864;28;20492;-71
2021/10/02 15:14:45;;;;;;;13.18;7.32;;;;;;;;;;5031771;28;20033;-73
2021/10/02 15:17:11;;;;;;;18.63;7.22;;;;;;;;;;5031402;28;20552;-72
2021/10/02 15:19:37;;;;;;;12.10;7.05;;;;;;;;;;5031101;28;20116;-73
2021/10/02 15:22:04;;;;;;;19.13;8.05;;;;;;;;;;5029940;28;20116;-73
2021/10/02 15:24:42;;;;;;;12.60;6.38;;;;;;;;;;5029333;28;20025;-72
2021/10/02 15:27:11;;;;;;;14.40;7.38;;;;;;;;;;5031116;28;20025;-71
2021/10/02 15:29:40;;;;;;;22.45;7.15;;;;;;;;;;5031131;28;20095;-73
2021/10/02 15:32:09;;;;;;;21.67;6.88;;;;;;;;;;5029532;28;20548;-73
2021/10/02 15:34:38;;;;;;;17.73;7.13;;;;;;;;;;5029106;28;20080;-73
2021/10/02 15:37:03;;;;;;;13.40;7.20;;;;;;;;;;5030853;28;20025;-73
2021/10/02 15:39:30;;;;;;;14.88;7.47;;;;;;;;;;5029178;28;20456;-73